Time;durP1;ratioP1;P1;durP2;ratioP2;P2;SDS_P1;SDS_P2;PMS_P1;PMS_P2;Temp;Humidity;BMP_temperature;BMP_pressure;BME280_temperature;BME280_humidity;BME280_pressure;Samples;Min_cycle;Max_cycle;Signal;HPM_P1;HPM_P2
2021/10/22 00:02:22;;;;;;;1.88;0.57;;;10.10;99.90;;;;;;5056828;28;20025;-92
2021/10/22 00:04:48;;;;;;;1.40;0.43;;;10.50;99.90;;;;;;5056262;28;20052;-92
2021/10/22 00:07:14;;;;;;;0.95;0.40;;;10.50;99.90;;;;;;5055470;28;20024;-91
2021/10/22 00:09:40;;;;;;;2.00;0.77;;;10.50;99.90;;;;;;5055929;28;20021;-92
2021/10/22 00:12:06;;;;;;;1.40;0.50;;;10.30;99.90;;;;;;5056601;28;20021;-93
2021/10/22 00:14:32;;;;;;;3.17;0.70;;;10.00;99.90;;;;;;5056442;28;20021;-92
2021/10/22 00:16:57;;;;;;;3.38;0.75;;;10.10;99.90;;;;;;5055957;28;20032;-92
2021/10/22 00:19:23;;;;;;;0.65;0.47;;;10.40;99.90;;;;;;5056769;28;20060;-92
2021/10/22 00:21:49;;;;;;;2.05;0.47;;;10.60;99.90;;;;;;5056028;28;20021;-93
2021/10/22 00:24:15;;;;;;;0.77;0.43;;;10.70;99.90;;;;;;5055895;28;20472;-92
2021/10/22 00:26:40;;;;;;;2.30;0.60;;;10.70;99.90;;;;;;5055616;28;20035;-92
2021/10/22 00:29:06;;;;;;;2.22;0.73;;;10.70;99.90;;;;;;5055744;28;20035;-92
2021/10/22 00:31:32;;;;;;;4.10;0.50;;;10.60;99.90;;;;;;5055265;28;20017;-93
2021/10/22 00:33:58;;;;;;;1.02;0.50;;;10.60;99.90;;;;;;5055703;28;20025;-93
2021/10/22 00:36:24;;;;;;;1.15;0.60;;;10.80;99.90;;;;;;5055584;28;20025;-92
2021/10/22 00:38:50;;;;;;;1.80;0.45;;;10.60;99.90;;;;;;5055725;28;20472;-93
2021/10/22 00:41:17;;;;;;;2.08;0.50;;;10.20;99.90;;;;;;5055286;28;20024;-92
2021/10/22 00:44:27;;;;;;;2.50;0.50;;;9.90;99.90;;;;;;5055089;28;20021;-92
2021/10/22 00:46:54;;;;;;;1.17;0.40;;;9.90;99.90;;;;;;5055332;28;20025;-92
2021/10/22 00:49:21;;;;;;;4.38;0.85;;;10.30;99.90;;;;;;5054989;28;20025;-93
2021/10/22 00:51:47;;;;;;;2.33;0.70;;;10.40;99.90;;;;;;5054607;28;20032;-92
2021/10/22 00:54:13;;;;;;;2.05;0.57;;;10.40;99.90;;;;;;5055687;28;20025;-92
2021/10/22 00:56:39;;;;;;;2.40;0.65;;;10.60;99.90;;;;;;5055091;28;20074;-92
2021/10/22 00:59:07;;;;;;;0.70;0.40;;;10.70;99.90;;;;;;5054072;28;20131;-92
2021/10/22 01:01:40;;;;;;;1.75;0.70;;;10.80;99.90;;;;;;5054880;28;20040;-92
2021/10/22 01:04:08;;;;;;;3.40;0.70;;;10.90;99.90;;;;;;5055167;28;20029;-92
2021/10/22 01:06:38;;;;;;;3.10;0.60;;;10.70;99.90;;;;;;5054662;28;20501;-92
2021/10/22 01:09:07;;;;;;;2.17;0.70;;;10.50;99.90;;;;;;5055117;28;20047;-93
2021/10/22 01:11:34;;;;;;;2.30;0.50;;;10.30;99.90;;;;;;5054592;28;20056;-92
2021/10/22 01:14:01;;;;;;;1.95;0.47;;;10.20;99.90;;;;;;5054814;28;20424;-92
2021/10/22 01:16:27;;;;;;;1.85;0.70;;;10.10;99.90;;;;;;5055169;28;20059;-93
2021/10/22 01:18:53;;;;;;;2.22;0.70;;;9.80;99.90;;;;;;5054678;28;20021;-92
2021/10/22 01:21:19;;;;;;;2.30;0.70;;;9.80;99.90;;;;;;5054158;28;20035;-93
2021/10/22 01:23:45;;;;;;;4.60;0.80;;;9.80;99.90;;;;;;5055377;28;20025;-92
2021/10/22 01:26:10;;;;;;;1.40;0.60;;;9.60;99.90;;;;;;5054287;28;20101;-92
2021/10/22 01:28:36;;;;;;;3.08;0.60;;;9.90;99.90;;;;;;5054634;28;20025;-92
2021/10/22 01:31:02;;;;;;;1.48;0.52;;;9.90;99.90;;;;;;5054510;28;20028;-92
2021/10/22 01:33:29;;;;;;;0.85;0.50;;;9.70;99.90;;;;;;5054265;28;20376;-92
2021/10/22 01:35:54;;;;;;;5.28;0.80;;;9.60;99.90;;;;;;5054074;28;20579;-92
2021/10/22 01:38:25;;;;;;;1.30;0.50;;;9.60;99.90;;;;;;5054404;28;20033;-92
2021/10/22 01:40:54;;;;;;;2.40;0.70;;;9.50;99.90;;;;;;5053828;28;20079;-92
2021/10/22 01:43:21;;;;;;;1.17;0.57;;;9.60;99.90;;;;;;5053867;28;20554;-92
2021/10/22 01:45:47;;;;;;;0.88;0.40;;;9.90;99.90;;;;;;5054277;28;20032;-92
2021/10/22 01:48:13;;;;;;;2.10;0.60;;;9.90;99.90;;;;;;5053736;28;20481;-91
2021/10/22 01:50:39;;;;;;;2.05;0.70;;;9.70;99.90;;;;;;5054310;28;20066;-92
2021/10/22 01:53:05;;;;;;;1.52;0.70;;;9.70;99.90;;;;;;5057614;28;20041;-92
2021/10/22 01:55:31;;;;;;;2.35;0.70;;;9.80;99.90;;;;;;5055981;28;20017;-92
2021/10/22 01:57:57;;;;;;;1.75;0.50;;;9.90;99.90;;;;;;5055052;28;20032;-92
2021/10/22 02:00:23;;;;;;;3.15;0.60;;;10.10;99.90;;;;;;5057379;28;20032;-92
2021/10/22 02:02:49;;;;;;;2.25;0.52;;;10.30;99.90;;;;;;5057626;28;20028;-91
2021/10/22 02:05:15;;;;;;;3.30;0.55;;;10.10;99.90;;;;;;5057150;28;20472;-91
2021/10/22 02:07:41;;;;;;;2.25;0.65;;;9.70;99.90;;;;;;5056240;28;20058;-92
2021/10/22 02:10:08;;;;;;;4.03;1.00;;;9.40;99.90;;;;;;5056813;28;20025;-91
2021/10/22 02:12:34;;;;;;;3.20;0.88;;;9.30;99.90;;;;;;5056632;28;20029;-91
2021/10/22 02:15:00;;;;;;;4.25;1.00;;;9.70;99.90;;;;;;5057577;28;20027;-92
2021/10/22 02:17:26;;;;;;;1.92;0.52;;;9.80;99.90;;;;;;5056515;28;20490;-91
2021/10/22 02:19:52;;;;;;;3.05;0.70;;;9.70;99.90;;;;;;5057112;28;20111;-91
2021/10/22 02:22:18;;;;;;;3.20;0.70;;;10.00;99.90;;;;;;5056657;28;20585;-91
2021/10/22 02:24:43;;;;;;;2.22;0.80;;;10.00;99.90;;;;;;5057693;28;20439;-92
2021/10/22 02:27:09;;;;;;;2.95;0.75;;;10.20;99.90;;;;;;5056691;28;20024;-92
2021/10/22 02:29:35;;;;;;;4.15;0.95;;;10.00;99.90;;;;;;5056293;28;20024;-92
2021/10/22 02:32:01;;;;;;;6.35;1.15;;;9.50;99.90;;;;;;5056878;28;20024;-91
2021/10/22 02:34:27;;;;;;;4.22;0.63;;;9.10;99.90;;;;;;5056251;28;20480;-92
2021/10/22 02:36:53;;;;;;;3.10;0.75;;;8.70;99.90;;;;;;5056600;28;20017;-91
2021/10/22 02:39:18;;;;;;;4.65;0.63;;;8.60;99.90;;;;;;5056619;28;20095;-92
2021/10/22 02:41:47;;;;;;;1.92;0.60;;;8.50;99.90;;;;;;5056048;28;20024;-92
2021/10/22 02:44:14;;;;;;;5.10;0.70;;;8.40;99.90;;;;;;5056220;28;20438;-91
2021/10/22 02:46:41;;;;;;;1.45;0.50;;;8.50;99.90;;;;;;5056158;28;20025;-91
2021/10/22 02:49:07;;;;;;;1.35;0.47;;;8.60;99.90;;;;;;5056022;28;20029;-91
2021/10/22 02:51:33;;;;;;;3.78;0.60;;;9.00;99.90;;;;;;5057255;28;20441;-91
2021/10/22 02:53:59;;;;;;;1.38;0.65;;;8.70;99.90;;;;;;5056613;28;20020;-92
2021/10/22 02:56:25;;;;;;;1.50;0.50;;;8.40;99.90;;;;;;5056948;28;20021;-91
2021/10/22 02:58:50;;;;;;;2.63;0.70;;;8.40;99.90;;;;;;5052916;28;20049;-91
2021/10/22 03:01:16;;;;;;;1.33;0.50;;;8.70;99.90;;;;;;5052968;28;20053;-91
2021/10/22 03:03:42;;;;;;;1.52;0.60;;;9.00;99.90;;;;;;5052982;28;20025;-91
2021/10/22 03:06:08;;;;;;;1.20;0.50;;;9.20;99.90;;;;;;5052914;28;20032;-91
2021/10/22 03:08:34;;;;;;;2.72;0.75;;;9.50;99.90;;;;;;5052911;28;20029;-91
2021/10/22 03:11:00;;;;;;;2.40;1.00;;;9.40;99.90;;;;;;5052662;28;20029;-91
2021/10/22 03:13:26;;;;;;;2.83;0.90;;;9.30;99.90;;;;;;5053002;28;20025;-91
2021/10/22 03:15:52;;;;;;;1.35;0.60;;;8.90;99.90;;;;;;5052717;28;20025;-91
2021/10/22 03:18:18;;;;;;;1.52;0.90;;;8.40;99.90;;;;;;5052705;28;20358;-91
2021/10/22 03:20:43;;;;;;;2.70;0.70;;;8.30;99.90;;;;;;5053340;28;20121;-91
2021/10/22 03:23:09;;;;;;;2.05;0.80;;;8.30;99.90;;;;;;5055888;28;20388;-91
2021/10/22 03:25:35;;;;;;;4.20;0.70;;;8.30;99.90;;;;;;5056262;28;20115;-91
2021/10/22 03:28:06;;;;;;;2.10;0.90;;;8.30;99.90;;;;;;5057146;28;20032;-91
2021/10/22 03:30:35;;;;;;;2.50;0.75;;;8.40;99.90;;;;;;5057014;28;20071;-91
2021/10/22 03:33:03;;;;;;;1.65;0.60;;;8.50;99.90;;;;;;5056172;28;20392;-90
2021/10/22 03:35:29;;;;;;;1.60;0.60;;;8.70;99.90;;;;;;5056153;28;20020;-90
2021/10/22 03:41:17;;;;;;;2.10;0.70;;;8.60;99.90;;;;;;5057206;28;20127;-91
2021/10/22 03:43:43;;;;;;;2.13;0.88;;;8.50;99.90;;;;;;5056194;28;20021;-90
2021/10/22 03:46:09;;;;;;;2.22;0.70;;;8.50;99.90;;;;;;5056561;28;20035;-90
2021/10/22 03:48:34;;;;;;;4.22;1.10;;;8.00;99.90;;;;;;5056029;28;20025;-91
2021/10/22 03:51:01;;;;;;;4.28;0.73;;;7.90;99.90;;;;;;5056789;28;20025;-91
2021/10/22 03:53:26;;;;;;;3.15;0.90;;;8.30;99.90;;;;;;5056089;28;20440;-90
2021/10/22 03:55:52;;;;;;;3.72;0.60;;;8.80;99.90;;;;;;5056041;28;20017;-91
2021/10/22 03:58:18;;;;;;;1.30;0.90;;;8.70;99.90;;;;;;5058962;28;20063;-90
2021/10/22 04:00:46;;;;;;;2.75;0.60;;;8.80;99.90;;;;;;5065791;28;20035;-90
2021/10/22 04:03:13;;;;;;;5.75;1.23;;;9.40;99.90;;;;;;5062775;28;20495;-90
2021/10/22 04:05:39;;;;;;;3.15;0.85;;;9.10;99.90;;;;;;5060179;28;20024;-90
2021/10/22 04:08:05;;;;;;;3.47;0.95;;;9.30;99.90;;;;;;5058808;28;20035;-91
2021/10/22 04:10:31;;;;;;;6.55;0.82;;;8.90;99.90;;;;;;5059282;28;20475;-90
2021/10/22 04:12:57;;;;;;;8.50;1.10;;;8.80;99.90;;;;;;5058485;28;20058;-91
2021/10/22 04:15:22;;;;;;;2.78;0.70;;;8.50;99.90;;;;;;5059000;28;20506;-90
2021/10/22 04:17:48;;;;;;;3.45;0.80;;;8.20;99.90;;;;;;5058684;28;20021;-90
2021/10/22 04:20:14;;;;;;;4.32;1.25;;;7.80;99.90;;;;;;5058347;28;20020;-90
2021/10/22 04:22:40;;;;;;;2.17;0.90;;;7.50;99.90;;;;;;5058685;28;20021;-91
2021/10/22 04:25:06;;;;;;;2.70;1.10;;;7.50;99.90;;;;;;5058563;28;20031;-90
2021/10/22 04:27:35;;;;;;;3.15;1.10;;;7.40;99.90;;;;;;5059384;28;20345;-90
2021/10/22 04:30:05;;;;;;;6.53;1.27;;;7.60;99.90;;;;;;5059101;28;20024;-90
2021/10/22 04:32:31;;;;;;;3.35;1.20;;;7.40;99.90;;;;;;5058369;28;20025;-91
2021/10/22 04:34:57;;;;;;;4.68;1.10;;;7.50;99.90;;;;;;5056874;28;20111;-88
2021/10/22 04:37:47;;;;;;;5.47;0.98;;;7.60;99.90;;;;;;5058870;28;20483;-88
2021/10/22 04:40:33;;;;;;;4.35;0.93;;;7.70;99.90;;;;;;5058496;28;20066;-89
2021/10/22 04:43:02;;;;;;;4.07;1.23;;;8.40;99.90;;;;;;5058308;28;20066;-88
2021/10/22 04:45:30;;;;;;;2.28;0.90;;;8.40;99.90;;;;;;5058512;28;20458;-90
2021/10/22 04:47:56;;;;;;;4.82;0.82;;;8.30;99.90;;;;;;5057914;28;20428;-91
2021/10/22 04:50:22;;;;;;;5.93;1.33;;;8.40;99.90;;;;;;5058326;28;20380;-91
2021/10/22 04:52:54;;;;;;;3.28;1.20;;;8.40;99.90;;;;;;5057684;28;20031;-91
2021/10/22 04:55:24;;;;;;;4.63;1.13;;;8.60;99.90;;;;;;5057539;28;20536;-91
2021/10/22 04:57:51;;;;;;;3.50;1.08;;;8.10;99.90;;;;;;5058139;28;20021;-91
2021/10/22 05:00:17;;;;;;;2.78;1.30;;;8.30;99.90;;;;;;5057215;28;20051;-90
2021/10/22 05:02:47;;;;;;;3.45;1.40;;;8.20;99.90;;;;;;5057915;28;20020;-91
2021/10/22 05:05:12;;;;;;;5.07;1.42;;;8.10;99.90;;;;;;5057633;28;20024;-90
2021/10/22 05:07:38;;;;;;;2.33;0.95;;;7.30;99.90;;;;;;5057407;28;20027;-91
2021/10/22 05:10:05;;;;;;;3.88;1.55;;;7.40;99.90;;;;;;5058022;28;20107;-91
2021/10/22 05:12:31;;;;;;;3.63;1.33;;;8.00;99.90;;;;;;5057648;28;20074;-90
2021/10/22 05:14:58;;;;;;;3.75;1.75;;;8.20;99.90;;;;;;5058452;28;20532;-90
2021/10/22 05:17:25;;;;;;;3.90;1.27;;;7.90;99.90;;;;;;5058052;28;20519;-90
2021/10/22 05:19:52;;;;;;;5.90;1.42;;;7.40;99.90;;;;;;5057496;28;20029;-90
2021/10/22 05:22:18;;;;;;;4.00;1.40;;;7.10;99.90;;;;;;5057565;28;20077;-90
2021/10/22 05:24:43;;;;;;;4.00;1.60;;;7.70;99.90;;;;;;5057945;28;20028;-90
2021/10/22 05:27:09;;;;;;;6.15;2.33;;;7.90;99.90;;;;;;5057307;28;20063;-90
2021/10/22 05:29:35;;;;;;;6.05;1.90;;;8.20;99.90;;;;;;5057178;28;20534;-90
2021/10/22 05:32:01;;;;;;;7.07;2.00;;;8.20;99.90;;;;;;5057469;28;20024;-89
2021/10/22 05:34:27;;;;;;;8.73;2.25;;;8.30;99.90;;;;;;5056922;28;20025;-90
2021/10/22 05:36:53;;;;;;;4.03;1.60;;;8.40;99.90;;;;;;5056948;28;20097;-90
2021/10/22 05:39:20;;;;;;;5.78;1.80;;;8.30;99.90;;;;;;5056674;28;20028;-90
2021/10/22 05:41:47;;;;;;;2.72;1.42;;;7.50;99.90;;;;;;5052357;28;20480;-90
2021/10/22 05:44:18;;;;;;;6.22;1.98;;;7.40;99.90;;;;;;5052080;28;20043;-90
2021/10/22 05:46:46;;;;;;;8.30;2.10;;;7.40;99.90;;;;;;5052368;28;20037;-90
2021/10/22 05:49:12;;;;;;;4.35;1.60;;;7.30;99.90;;;;;;5051935;28;20025;-90
2021/10/22 05:51:38;;;;;;;6.20;2.00;;;7.30;99.90;;;;;;5051990;28;20028;-90
2021/10/22 05:54:04;;;;;;;5.00;1.80;;;7.50;99.90;;;;;;5052071;28;20033;-90
2021/10/22 05:56:30;;;;;;;6.70;1.60;;;7.80;99.90;;;;;;5051837;28;20123;-90
2021/10/22 05:58:56;;;;;;;7.13;2.00;;;7.80;99.90;;;;;;5051831;28;20136;-90
2021/10/22 06:01:22;;;;;;;4.47;1.40;;;7.80;99.90;;;;;;5051961;28;20482;-90
2021/10/22 06:03:48;;;;;;;5.45;1.90;;;7.80;99.90;;;;;;5051761;28;20033;-89
2021/10/22 06:06:14;;;;;;;3.90;1.55;;;7.50;99.90;;;;;;5052080;28;20456;-90
2021/10/22 06:08:41;;;;;;;3.70;1.38;;;7.30;99.90;;;;;;5052020;28;20536;-90
2021/10/22 06:11:10;;;;;;;3.42;1.38;;;7.50;99.90;;;;;;5052312;28;20381;-90
2021/10/22 06:13:37;;;;;;;5.95;1.48;;;7.50;99.90;;;;;;5052346;28;20487;-90
2021/10/22 06:16:03;;;;;;;4.60;1.40;;;8.10;99.90;;;;;;5052077;28;20432;-90
2021/10/22 06:18:29;;;;;;;7.82;1.50;;;7.80;99.90;;;;;;5055056;28;20036;-88
2021/10/22 06:21:01;;;;;;;6.30;1.80;;;7.90;99.90;;;;;;5055497;28;20047;-88
2021/10/22 06:26:11;;;;;;;4.60;1.60;;;7.70;99.90;;;;;;5073924;28;20046;-88
2021/10/22 06:28:37;;;;;;;5.45;1.50;;;8.00;99.90;;;;;;5055623;28;20124;-88
2021/10/22 06:31:03;;;;;;;4.38;1.20;;;8.10;99.90;;;;;;5055738;28;20025;-88
2021/10/22 06:33:29;;;;;;;4.55;1.85;;;8.20;99.90;;;;;;5055943;28;20112;-88
2021/10/22 06:35:55;;;;;;;5.20;1.45;;;8.30;99.90;;;;;;5056460;28;20074;-88
2021/10/22 06:38:21;;;;;;;7.95;2.30;;;8.30;99.90;;;;;;5055338;28;20050;-88
2021/10/22 06:40:50;;;;;;;4.15;1.80;;;8.50;99.90;;;;;;5055448;28;20025;-89
2021/10/22 06:43:19;;;;;;;5.15;1.80;;;8.60;99.90;;;;;;5055466;28;20021;-88
2021/10/22 06:45:46;;;;;;;4.53;1.92;;;8.90;99.90;;;;;;5055378;28;20107;-89
2021/10/22 06:48:12;;;;;;;11.75;2.45;;;9.00;99.90;;;;;;5055010;28;20028;-88
2021/10/22 06:50:37;;;;;;;8.85;2.10;;;9.10;99.90;;;;;;5055074;28;20046;-88
2021/10/22 06:53:03;;;;;;;11.35;2.10;;;8.90;99.90;;;;;;5038352;28;20048;-88
2021/10/22 06:55:29;;;;;;;5.32;1.92;;;8.60;99.90;;;;;;5055092;28;20047;-87
2021/10/22 06:57:55;;;;;;;6.50;1.73;;;8.40;99.90;;;;;;5057779;28;20035;-88
2021/10/22 07:00:22;;;;;;;6.25;1.90;;;8.30;99.90;;;;;;5077406;28;20024;-88
2021/10/22 07:02:53;;;;;;;5.55;1.77;;;8.50;99.90;;;;;;5077004;28;20387;-88
2021/10/22 07:05:35;;;;;;;6.03;2.00;;;8.30;99.90;;;;;;5059428;28;20078;-88
2021/10/22 07:08:02;;;;;;;6.60;1.80;;;8.10;99.90;;;;;;5058976;28;20430;-87
2021/10/22 07:10:29;;;;;;;7.72;2.30;;;7.90;99.90;;;;;;5059170;28;20376;-88
2021/10/22 07:12:56;;;;;;;5.93;2.13;;;7.70;99.90;;;;;;5058869;28;20021;-87
2021/10/22 07:15:21;;;;;;;7.22;2.03;;;7.90;99.90;;;;;;5076761;28;20029;-87
2021/10/22 07:17:47;;;;;;;4.13;1.88;;;8.00;99.90;;;;;;5059021;28;20030;-87
2021/10/22 07:20:14;;;;;;;8.73;1.83;;;8.00;99.90;;;;;;5058777;28;20020;-87
2021/10/22 07:22:52;;;;;;;5.53;1.70;;;8.60;99.90;;;;;;5058634;28;20056;-88
2021/10/22 07:25:19;;;;;;;5.85;1.80;;;8.90;99.90;;;;;;5058678;28;20044;-87
2021/10/22 07:27:46;;;;;;;8.77;2.17;;;9.40;99.90;;;;;;5058500;28;20031;-87
2021/10/22 07:30:12;;;;;;;7.90;2.40;;;9.50;99.90;;;;;;5058534;28;20070;-87
2021/10/22 07:32:38;;;;;;;5.60;1.85;;;9.60;99.90;;;;;;5058396;28;20108;-88
2021/10/22 07:35:05;;;;;;;5.20;1.77;;;9.30;99.90;;;;;;5058415;28;20021;-88
2021/10/22 07:37:31;;;;;;;7.28;1.73;;;9.00;99.90;;;;;;5058561;28;20056;-87
2021/10/22 07:39:58;;;;;;;7.15;1.92;;;8.80;99.90;;;;;;5058352;28;20164;-88
2021/10/22 07:42:27;;;;;;;6.13;2.00;;;8.90;99.90;;;;;;5058435;28;20365;-86
2021/10/22 07:44:59;;;;;;;6.65;2.42;;;9.00;99.90;;;;;;5076356;28;20025;-90
2021/10/22 07:47:27;;;;;;;10.38;2.40;;;9.20;99.90;;;;;;5058517;28;20078;-90
2021/10/22 07:49:54;;;;;;;5.75;2.60;;;9.40;99.90;;;;;;5058467;28;20039;-90
2021/10/22 07:52:22;;;;;;;7.10;1.80;;;9.30;99.90;;;;;;5058192;28;20052;-90
2021/10/22 07:54:49;;;;;;;5.63;1.63;;;9.30;99.90;;;;;;5076381;28;20021;-90
2021/10/22 07:57:15;;;;;;;3.80;1.55;;;9.40;99.90;;;;;;5058146;28;20048;-89
2021/10/22 07:59:40;;;;;;;7.38;1.80;;;9.60;99.90;;;;;;5057926;28;20495;-90
2021/10/22 08:02:14;;;;;;;7.10;1.90;;;9.80;99.90;;;;;;5058085;28;20029;-90
2021/10/22 08:04:43;;;;;;;8.15;2.05;;;10.00;99.90;;;;;;5058346;28;20056;-89
2021/10/22 08:07:09;;;;;;;13.27;1.95;;;10.30;99.90;;;;;;5076336;28;20031;-89
2021/10/22 08:09:36;;;;;;;9.63;1.67;;;10.40;99.90;;;;;;5065150;28;20484;-87
2021/10/22 08:12:02;;;;;;;7.45;1.80;;;10.60;99.90;;;;;;5065498;28;20028;-89
2021/10/22 08:14:28;;;;;;;7.90;2.10;;;11.00;99.90;;;;;;5059110;28;20605;-89
2021/10/22 08:16:53;;;;;;;8.65;1.58;;;11.10;99.90;;;;;;5058491;28;20055;-89
2021/10/22 08:19:19;;;;;;;10.73;1.85;;;11.20;99.90;;;;;;5076288;28;20021;-89
2021/10/22 08:24:11;;;;;;;10.52;2.67;;;11.40;99.90;;;;;;5075855;28;20020;-89
2021/10/22 08:26:37;;;;;;;11.88;2.47;;;11.60;99.90;;;;;;5057660;28;20024;-90
2021/10/22 08:29:03;;;;;;;8.98;2.00;;;11.60;99.90;;;;;;5057411;28;20395;-87
2021/10/22 08:31:29;;;;;;;10.43;1.98;;;11.70;99.90;;;;;;5057618;28;20021;-88
2021/10/22 08:33:55;;;;;;;14.32;2.28;;;11.90;99.90;;;;;;5057421;28;20040;-90
2021/10/22 08:36:21;;;;;;;12.88;2.22;;;11.90;99.90;;;;;;5057803;28;20021;-90
2021/10/22 08:38:46;;;;;;;10.02;2.28;;;12.00;99.90;;;;;;5057464;28;20020;-88
2021/10/22 08:41:15;;;;;;;9.63;2.15;;;11.90;99.90;;;;;;5075357;28;20100;-89
2021/10/22 08:43:41;;;;;;;15.00;2.63;;;12.20;99.90;;;;;;5057257;28;20127;-87
2021/10/22 08:46:13;;;;;;;10.95;1.90;;;12.50;99.90;;;;;;5057141;28;20025;-88
2021/10/22 08:48:40;;;;;;;10.50;2.30;;;12.70;99.90;;;;;;5057353;28;20028;-88
2021/10/22 08:51:06;;;;;;;11.57;2.20;;;12.90;99.90;;;;;;5057107;28;20073;-88
2021/10/22 08:53:33;;;;;;;9.27;1.75;;;13.00;99.90;;;;;;5057171;28;20021;-88
2021/10/22 08:55:59;;;;;;;12.40;2.67;;;13.00;99.90;;;;;;5056911;28;20023;-87
2021/10/22 08:58:26;;;;;;;15.43;2.28;;;12.90;99.90;;;;;;5056650;28;20504;-88
2021/10/22 09:00:52;;;;;;;12.43;2.00;;;12.90;99.90;;;;;;5057233;28;20031;-89
2021/10/22 09:03:19;;;;;;;10.23;2.05;;;12.90;99.90;;;;;;5057136;28;20032;-89
2021/10/22 09:06:03;;;;;;;8.10;1.98;;;13.30;99.90;;;;;;5057145;28;20020;-90
2021/10/22 09:08:33;;;;;;;13.15;2.42;;;13.40;99.90;;;;;;5056941;28;20024;-90
2021/10/22 09:11:01;;;;;;;13.75;2.60;;;13.50;99.90;;;;;;5057072;28;20035;-90
2021/10/22 09:13:28;;;;;;;16.20;2.58;;;13.00;99.90;;;;;;5057136;28;20024;-91
2021/10/22 09:15:57;;;;;;;11.05;2.22;;;13.20;99.90;;;;;;5056949;28;20024;-90
2021/10/22 09:18:25;;;;;;;15.65;2.45;;;13.40;99.90;;;;;;5056967;28;20111;-90
2021/10/22 09:20:57;;;;;;;9.30;1.88;;;13.60;99.90;;;;;;5056389;28;20051;-91
2021/10/22 09:23:31;;;;;;;11.10;2.10;;;13.80;99.90;;;;;;5057271;28;20034;-88
2021/10/22 09:26:13;;;;;;;8.27;1.98;;;13.70;99.90;;;;;;5056581;28;20477;-90
2021/10/22 09:28:39;;;;;;;6.30;1.70;;;13.40;99.90;;;;;;5057026;28;20097;-89
2021/10/22 09:31:17;;;;;;;9.77;1.95;;;13.20;99.90;;;;;;5056663;28;20021;-91
2021/10/22 09:33:53;;;;;;;11.00;2.15;;;13.20;99.90;;;;;;5057448;28;20021;-89
2021/10/22 09:36:40;;;;;;;8.85;1.95;;;13.30;99.90;;;;;;5056214;28;20017;-89
2021/10/22 09:39:24;;;;;;;7.30;1.55;;;13.50;99.90;;;;;;5056461;28;20090;-91
2021/10/22 09:41:55;;;;;;;10.63;1.65;;;13.90;99.90;;;;;;5056616;28;20124;-91
2021/10/22 09:44:22;;;;;;;8.05;1.88;;;13.80;99.90;;;;;;5056142;28;20101;-86
2021/10/22 09:46:50;;;;;;;13.05;1.88;;;13.70;99.90;;;;;;5056073;28;20492;-89
2021/10/22 09:49:27;;;;;;;15.45;2.13;;;13.90;99.90;;;;;;5055897;28;20493;-89
2021/10/22 09:51:55;;;;;;;9.35;1.38;;;13.50;99.90;;;;;;5053808;28;20145;-90
2021/10/22 09:54:27;;;;;;;11.02;2.03;;;13.70;99.90;;;;;;5056097;28;20115;-88
2021/10/22 09:56:56;;;;;;;11.93;2.10;;;13.80;99.90;;;;;;5055878;28;20028;-90
2021/10/22 09:59:26;;;;;;;9.02;2.10;;;14.10;99.90;;;;;;5055801;28;20475;-90
2021/10/22 10:01:56;;;;;;;12.18;1.83;;;14.20;99.90;;;;;;5055909;28;20395;-90
2021/10/22 10:04:24;;;;;;;11.57;1.77;;;14.20;99.90;;;;;;5056610;28;20430;-89
2021/10/22 10:06:50;;;;;;;10.60;1.60;;;14.40;99.90;;;;;;5056677;28;20545;-88
2021/10/22 10:09:17;;;;;;;7.07;1.58;;;14.40;99.90;;;;;;5055654;28;20502;-85
2021/10/22 10:11:44;;;;;;;9.60;1.75;;;14.50;99.90;;;;;;5074018;28;20460;-86
2021/10/22 10:14:16;;;;;;;7.47;1.70;;;14.80;99.90;;;;;;5055880;28;20024;-90
2021/10/22 10:16:47;;;;;;;6.88;1.42;;;14.90;99.90;;;;;;5039952;28;20442;-90
2021/10/22 10:19:19;;;;;;;7.25;1.27;;;15.40;99.90;;;;;;5055788;28;20021;-90
2021/10/22 10:21:54;;;;;;;8.35;1.58;;;15.90;99.90;;;;;;5055592;28;20024;-89
2021/10/22 10:24:20;;;;;;;;;;;15.80;99.90;;;;;;5056124;28;20443;-87
2021/10/22 10:27:08;;;;;;;10.90;1.67;;;15.60;99.90;;;;;;5073516;28;19912;-91
2021/10/22 10:29:41;;;;;;;5.40;1.23;;;15.10;99.90;;;;;;5031480;28;20029;-90
2021/10/22 10:32:10;;;;;;;6.25;1.30;;;15.50;99.90;;;;;;5015228;28;20040;-89
2021/10/22 10:35:03;;;;;;;8.23;1.58;;;15.80;99.90;;;;;;5015121;28;20025;-89
2021/10/22 10:37:36;;;;;;;6.75;1.45;;;15.80;99.90;;;;;;4992208;28;20034;-90
2021/10/22 10:40:08;;;;;;;7.53;1.50;;;16.20;99.90;;;;;;4975942;28;20061;-90
2021/10/22 10:42:43;;;;;;;8.63;1.40;;;16.30;99.00;;;;;;4992389;28;20105;-90
2021/10/22 10:45:19;;;;;;;7.68;1.60;;;16.50;99.30;;;;;;4975848;28;20054;-90
2021/10/22 10:47:56;;;;;;;6.45;1.60;;;16.70;99.30;;;;;;4976428;28;20479;-90
2021/10/22 10:50:21;;;;;;;6.40;1.50;;;16.90;97.90;;;;;;4975757;28;20031;-90
2021/10/22 10:52:50;;;;;;;6.30;1.50;;;17.70;99.20;;;;;;4975539;28;20517;-88
2021/10/22 10:55:32;;;;;;;7.00;1.10;;;17.70;94.90;;;;;;4975884;28;20038;-91
2021/10/22 10:58:19;;;;;;;5.07;1.08;;;17.70;93.50;;;;;;4975687;28;20110;-90
2021/10/22 11:00:51;;;;;;;5.53;1.42;;;17.50;92.90;;;;;;4975995;28;20093;-89
2021/10/22 11:03:25;;;;;;;5.50;1.20;;;17.50;94.10;;;;;;4976431;28;20066;-89
2021/10/22 11:05:52;;;;;;;6.28;1.33;;;17.60;94.20;;;;;;4976880;28;20026;-89
2021/10/22 11:08:38;;;;;;;8.35;1.30;;;17.90;95.30;;;;;;5031290;28;20049;-91
2021/10/22 11:11:11;;;;;;;11.20;1.77;;;18.30;91.10;;;;;;5014930;28;20026;-90
2021/10/22 11:13:50;;;;;;;6.03;1.40;;;18.30;92.20;;;;;;5024415;28;20063;-90
2021/10/22 11:16:22;;;;;;;6.20;1.20;;;18.70;93.20;;;;;;5055247;28;20266;-89
2021/10/22 11:19:01;;;;;;;4.13;1.02;;;18.40;88.70;;;;;;5055124;28;20056;-90
2021/10/22 11:21:29;;;;;;;6.05;1.27;;;18.00;89.00;;;;;;5055096;28;20029;-89
2021/10/22 11:24:00;;;;;;;6.07;1.30;;;18.50;89.20;;;;;;5054861;28;20032;-89
2021/10/22 11:26:26;;;;;;;3.22;0.90;;;18.00;90.50;;;;;;5054929;28;20029;-86
2021/10/22 11:29:00;;;;;;;5.05;1.48;;;17.80;83.90;;;;;;5055286;28;20119;-88
2021/10/22 11:31:51;;;;;;;7.67;1.60;;;17.90;89.80;;;;;;5054914;28;20031;-90
2021/10/22 11:34:19;;;;;;;6.50;1.27;;;18.80;86.00;;;;;;5055359;28;20259;-91
2021/10/22 11:36:58;;;;;;;5.10;1.30;;;19.10;86.80;;;;;;5054632;28;20032;-90
2021/10/22 11:39:34;;;;;;;4.82;1.35;;;19.20;83.50;;;;;;5055479;28;20078;-91
2021/10/22 11:42:10;;;;;;;5.45;1.17;;;19.10;83.30;;;;;;5055309;28;20373;-89
2021/10/22 11:44:40;;;;;;;3.28;0.93;;;19.10;85.10;;;;;;5058278;28;20033;-87
2021/10/22 11:47:08;;;;;;;3.60;1.25;;;18.90;77.40;;;;;;5058785;28;20032;-91
2021/10/22 11:49:38;;;;;;;5.30;1.35;;;18.40;77.30;;;;;;5058406;28;20028;-90
2021/10/22 11:52:07;;;;;;;8.77;1.40;;;19.20;72.50;;;;;;5058154;28;20107;-90
2021/10/22 11:54:39;;;;;;;6.25;1.40;;;19.50;78.60;;;;;;5058486;28;20028;-90
2021/10/22 11:57:12;;;;;;;6.68;1.55;;;20.30;75.00;;;;;;5076119;28;20013;-87
2021/10/22 11:59:53;;;;;;;4.28;1.30;;;20.90;75.20;;;;;;5058416;28;20464;-90
2021/10/22 12:02:20;;;;;;;4.75;1.40;;;20.80;67.00;;;;;;5059911;28;20471;-90
2021/10/22 12:04:56;;;;;;;6.03;1.20;;;20.60;71.60;;;;;;5062622;28;20091;-89
2021/10/22 12:07:22;;;;;;;5.88;1.38;;;20.70;70.40;;;;;;5058487;28;20036;-90
2021/10/22 12:09:53;;;;;;;6.80;1.50;;;20.80;68.90;;;;;;5058070;28;20492;-88
2021/10/22 12:12:19;;;;;;;6.40;1.40;;;21.50;69.00;;;;;;5058001;28;20016;-90
2021/10/22 12:14:47;;;;;;;6.25;1.13;;;20.70;70.00;;;;;;5041580;28;20367;-90
2021/10/22 12:17:28;;;;;;;6.82;1.30;;;20.00;66.90;;;;;;5075917;28;20022;-90
2021/10/22 12:19:58;;;;;;;6.03;1.50;;;19.60;71.00;;;;;;5057983;28;20028;-88
2021/10/22 12:22:29;;;;;;;8.02;1.67;;;20.20;69.20;;;;;;5057869;28;20024;-89
2021/10/22 12:24:58;;;;;;;8.02;1.35;;;19.90;71.40;;;;;;5057537;28;20028;-89
2021/10/22 12:27:29;;;;;;;6.72;1.55;;;20.30;73.90;;;;;;5057524;28;20029;-89
2021/10/22 12:29:57;;;;;;;4.32;1.23;;;21.10;70.00;;;;;;5057497;28;20055;-89
2021/10/22 12:32:42;;;;;;;4.18;1.30;;;21.10;65.90;;;;;;5075348;28;20116;-88
2021/10/22 12:35:15;;;;;;;4.13;0.95;;;21.00;66.90;;;;;;5057465;28;20024;-90
2021/10/22 12:37:46;;;;;;;6.25;1.30;;;20.80;66.20;;;;;;5057792;28;20103;-89
2021/10/22 12:40:21;;;;;;;4.15;1.10;;;21.90;64.90;;;;;;5053511;28;20024;-89
2021/10/22 12:43:01;;;;;;;4.80;1.30;;;21.90;64.30;;;;;;5057376;28;20082;-89
2021/10/22 12:45:27;;;;;;;4.78;1.50;;;22.50;63.00;;;;;;5058083;28;20028;-88
2021/10/22 12:47:53;;;;;;;7.32;1.42;;;22.60;61.70;;;;;;5057090;28;20024;-89
2021/10/22 12:50:33;;;;;;;5.55;1.30;;;22.70;63.30;;;;;;5057466;28;20036;-89
2021/10/22 12:53:04;;;;;;;5.85;1.48;;;22.70;63.90;;;;;;5054433;28;20025;-89
2021/10/22 12:55:30;;;;;;;9.23;1.48;;;23.10;62.10;;;;;;5056017;28;20017;-89
2021/10/22 12:58:20;;;;;;;4.47;1.30;;;22.90;60.10;;;;;;5057601;28;20056;-89
2021/10/22 13:01:04;;;;;;;4.57;1.00;;;22.90;59.70;;;;;;5056674;28;20055;-89
2021/10/22 13:03:30;;;;;;;5.90;1.30;;;22.60;59.60;;;;;;5056839;28;20111;-87
2021/10/22 13:05:56;;;;;;;6.75;1.33;;;22.30;62.80;;;;;;5056833;28;20035;-87
2021/10/22 13:08:41;;;;;;;5.22;1.45;;;22.30;61.20;;;;;;5057279;28;20052;-87